sensor_id;sensor_type;location;lat;lon;timestamp;P1;durP1;ratioP1;P2;durP2;ratioP2
50906;SDS011;36882;27.680;85.304;2023-08-24T00:01:22;14.32;;;7.55;;
50906;SDS011;36882;27.680;85.304;2023-08-24T00:03:52;15.00;;;7.90;;
50906;SDS011;36882;27.680;85.304;2023-08-24T00:08:51;8.87;;;6.10;;
50906;SDS011;36882;27.680;85.304;2023-08-24T00:13:51;10.90;;;5.87;;
50906;SDS011;36882;27.680;85.304;2023-08-24T00:16:22;14.52;;;7.82;;
50906;SDS011;36882;27.680;85.304;2023-08-24T00:21:21;10.18;;;7.03;;
50906;SDS011;36882;27.680;85.304;2023-08-24T00:23:52;10.63;;;5.90;;
50906;SDS011;36882;27.680;85.304;2023-08-24T00:26:22;11.48;;;7.50;;
50906;SDS011;36882;27.680;85.304;2023-08-24T00:28:53;19.20;;;9.52;;
50906;SDS011;36882;27.680;85.304;2023-08-24T00:31:23;16.13;;;8.80;;
50906;SDS011;36882;27.680;85.304;2023-08-24T00:33:53;16.65;;;9.02;;
50906;SDS011;36882;27.680;85.304;2023-08-24T00:38:52;15.57;;;10.10;;
50906;SDS011;36882;27.680;85.304;2023-08-24T00:41:23;16.10;;;9.65;;
50906;SDS011;36882;27.680;85.304;2023-08-24T00:43:53;21.88;;;10.45;;
50906;SDS011;36882;27.680;85.304;2023-08-24T00:48:55;16.50;;;10.38;;
50906;SDS011;36882;27.680;85.304;2023-08-24T00:51:25;20.55;;;10.88;;
50906;SDS011;36882;27.680;85.304;2023-08-24T00:56:25;19.85;;;11.18;;
50906;SDS011;36882;27.680;85.304;2023-08-24T00:58:58;18.85;;;9.82;;
50906;SDS011;36882;27.680;85.304;2023-08-24T01:03:57;19.33;;;11.25;;
50906;SDS011;36882;27.680;85.304;2023-08-24T01:06:27;18.25;;;11.88;;
50906;SDS011;36882;27.680;85.304;2023-08-24T01:08:57;21.40;;;11.55;;
50906;SDS011;36882;27.680;85.304;2023-08-24T01:17:08;19.75;;;12.02;;
50906;SDS011;36882;27.680;85.304;2023-08-24T01:19:43;21.17;;;12.05;;
50906;SDS011;36882;27.680;85.304;2023-08-24T01:27:42;15.07;;;8.20;;
50906;SDS011;36882;27.680;85.304;2023-08-24T01:30:16;14.55;;;8.55;;
50906;SDS011;36882;27.680;85.304;2023-08-24T01:32:48;15.18;;;9.60;;
50906;SDS011;36882;27.680;85.304;2023-08-24T01:35:18;15.30;;;7.65;;
50906;SDS011;36882;27.680;85.304;2023-08-24T01:40:20;21.20;;;11.32;;
50906;SDS011;36882;27.680;85.304;2023-08-24T01:42:56;19.73;;;11.20;;
50906;SDS011;36882;27.680;85.304;2023-08-24T01:45:29;14.02;;;9.27;;
50906;SDS011;36882;27.680;85.304;2023-08-24T01:48:00;13.70;;;9.00;;
50906;SDS011;36882;27.680;85.304;2023-08-24T01:50:32;15.18;;;9.07;;
50906;SDS011;36882;27.680;85.304;2023-08-24T01:53:03;14.07;;;7.68;;
50906;SDS011;36882;27.680;85.304;2023-08-24T01:55:33;11.82;;;7.78;;
50906;SDS011;36882;27.680;85.304;2023-08-24T01:58:03;15.82;;;8.85;;
50906;SDS011;36882;27.680;85.304;2023-08-24T02:03:02;16.73;;;8.60;;
50906;SDS011;36882;27.680;85.304;2023-08-24T02:05:33;12.35;;;7.05;;
50906;SDS011;36882;27.680;85.304;2023-08-24T02:10:32;11.70;;;6.53;;
50906;SDS011;36882;27.680;85.304;2023-08-24T02:13:02;9.48;;;6.15;;
50906;SDS011;36882;27.680;85.304;2023-08-24T02:15:32;9.32;;;7.22;;
50906;SDS011;36882;27.680;85.304;2023-08-24T02:18:02;10.45;;;7.00;;
50906;SDS011;36882;27.680;85.304;2023-08-24T02:20:36;16.45;;;8.65;;
50906;SDS011;36882;27.680;85.304;2023-08-24T02:23:06;16.25;;;11.15;;
50906;SDS011;36882;27.680;85.304;2023-08-24T02:25:41;16.48;;;11.85;;
50906;SDS011;36882;27.680;85.304;2023-08-24T02:28:12;18.55;;;14.15;;
50906;SDS011;36882;27.680;85.304;2023-08-24T02:30:42;21.15;;;13.63;;
50906;SDS011;36882;27.680;85.304;2023-08-24T02:33:12;15.65;;;12.68;;
50906;SDS011;36882;27.680;85.304;2023-08-24T02:35:42;15.65;;;11.70;;
50906;SDS011;36882;27.680;85.304;2023-08-24T02:38:13;17.70;;;13.27;;
50906;SDS011;36882;27.680;85.304;2023-08-24T02:43:12;18.45;;;11.98;;
50906;SDS011;36882;27.680;85.304;2023-08-24T02:45:42;15.60;;;9.82;;
50906;SDS011;36882;27.680;85.304;2023-08-24T02:50:45;15.43;;;10.43;;
50906;SDS011;36882;27.680;85.304;2023-08-24T02:53:16;13.65;;;9.90;;
50906;SDS011;36882;27.680;85.304;2023-08-24T02:58:15;11.97;;;7.37;;
50906;SDS011;36882;27.680;85.304;2023-08-24T03:00:45;11.30;;;8.13;;
50906;SDS011;36882;27.680;85.304;2023-08-24T03:05:57;17.65;;;12.43;;
50906;SDS011;36882;27.680;85.304;2023-08-24T03:08:29;15.50;;;11.20;;
50906;SDS011;36882;27.680;85.304;2023-08-24T03:10:59;16.17;;;11.63;;
50906;SDS011;36882;27.680;85.304;2023-08-24T03:13:30;14.82;;;10.75;;
50906;SDS011;36882;27.680;85.304;2023-08-24T03:16:04;12.60;;;9.77;;
50906;SDS011;36882;27.680;85.304;2023-08-24T03:18:35;16.65;;;10.70;;
50906;SDS011;36882;27.680;85.304;2023-08-24T03:23:35;15.52;;;10.52;;
50906;SDS011;36882;27.680;85.304;2023-08-24T03:28:35;14.13;;;9.63;;
50906;SDS011;36882;27.680;85.304;2023-08-24T03:31:06;19.23;;;10.07;;
50906;SDS011;36882;27.680;85.304;2023-08-24T03:33:36;16.95;;;11.95;;
50906;SDS011;36882;27.680;85.304;2023-08-24T03:36:06;17.00;;;11.38;;
50906;SDS011;36882;27.680;85.304;2023-08-24T03:38:36;14.75;;;9.45;;
50906;SDS011;36882;27.680;85.304;2023-08-24T03:43:35;16.65;;;12.05;;
50906;SDS011;36882;27.680;85.304;2023-08-24T03:46:05;16.05;;;11.75;;
50906;SDS011;36882;27.680;85.304;2023-08-24T03:48:35;15.65;;;11.07;;
50906;SDS011;36882;27.680;85.304;2023-08-24T03:53:34;19.98;;;14.60;;
50906;SDS011;36882;27.680;85.304;2023-08-24T03:56:04;20.77;;;16.60;;
50906;SDS011;36882;27.680;85.304;2023-08-24T04:01:04;21.27;;;16.08;;
50906;SDS011;36882;27.680;85.304;2023-08-24T04:03:39;19.83;;;17.40;;
50906;SDS011;36882;27.680;85.304;2023-08-24T04:06:08;20.60;;;16.58;;
50906;SDS011;36882;27.680;85.304;2023-08-24T04:08:38;17.65;;;13.93;;
50906;SDS011;36882;27.680;85.304;2023-08-24T04:13:38;17.75;;;14.00;;
50906;SDS011;36882;27.680;85.304;2023-08-24T04:16:11;15.82;;;14.00;;
50906;SDS011;36882;27.680;85.304;2023-08-24T04:18:42;13.30;;;11.88;;
50906;SDS011;36882;27.680;85.304;2023-08-24T04:21:12;16.98;;;12.93;;
50906;SDS011;36882;27.680;85.304;2023-08-24T04:23:41;22.10;;;13.07;;
50906;SDS011;36882;27.680;85.304;2023-08-24T04:26:13;15.88;;;13.68;;
50906;SDS011;36882;27.680;85.304;2023-08-24T04:28:45;14.65;;;13.15;;
50906;SDS011;36882;27.680;85.304;2023-08-24T04:31:15;18.15;;;14.15;;
50906;SDS011;36882;27.680;85.304;2023-08-24T04:33:45;15.95;;;13.45;;
50906;SDS011;36882;27.680;85.304;2023-08-24T04:36:15;13.00;;;11.00;;
50906;SDS011;36882;27.680;85.304;2023-08-24T04:38:45;13.60;;;11.85;;
50906;SDS011;36882;27.680;85.304;2023-08-24T04:41:15;14.15;;;10.68;;
50906;SDS011;36882;27.680;85.304;2023-08-24T04:43:45;17.98;;;14.35;;
50906;SDS011;36882;27.680;85.304;2023-08-24T04:46:15;16.58;;;13.48;;
50906;SDS011;36882;27.680;85.304;2023-08-24T04:48:46;15.98;;;12.38;;
50906;SDS011;36882;27.680;85.304;2023-08-24T04:51:19;14.77;;;12.80;;
50906;SDS011;36882;27.680;85.304;2023-08-24T04:53:49;15.52;;;12.88;;
50906;SDS011;36882;27.680;85.304;2023-08-24T04:56:19;14.43;;;11.52;;
50906;SDS011;36882;27.680;85.304;2023-08-24T04:58:55;12.80;;;11.45;;
50906;SDS011;36882;27.680;85.304;2023-08-24T05:01:26;13.00;;;10.10;;
50906;SDS011;36882;27.680;85.304;2023-08-24T05:03:58;14.80;;;13.02;;
50906;SDS011;36882;27.680;85.304;2023-08-24T05:06:29;16.55;;;12.35;;
50906;SDS011;36882;27.680;85.304;2023-08-24T05:09:00;15.80;;;14.05;;
50906;SDS011;36882;27.680;85.304;2023-08-24T05:11:30;13.32;;;11.40;;
50906;SDS011;36882;27.680;85.304;2023-08-24T05:14:00;16.27;;;11.50;;
50906;SDS011;36882;27.680;85.304;2023-08-24T05:16:30;12.00;;;10.05;;
50906;SDS011;36882;27.680;85.304;2023-08-24T05:19:00;10.52;;;9.43;;
50906;SDS011;36882;27.680;85.304;2023-08-24T05:21:37;9.25;;;8.35;;
50906;SDS011;36882;27.680;85.304;2023-08-24T05:24:13;14.35;;;10.27;;
50906;SDS011;36882;27.680;85.304;2023-08-24T05:26:43;8.73;;;7.82;;
50906;SDS011;36882;27.680;85.304;2023-08-24T05:29:14;12.88;;;10.98;;
50906;SDS011;36882;27.680;85.304;2023-08-24T05:31:44;14.35;;;10.90;;
50906;SDS011;36882;27.680;85.304;2023-08-24T05:34:14;12.20;;;10.95;;
50906;SDS011;36882;27.680;85.304;2023-08-24T05:36:44;9.40;;;7.43;;
50906;SDS011;36882;27.680;85.304;2023-08-24T05:39:14;10.13;;;9.05;;
50906;SDS011;36882;27.680;85.304;2023-08-24T05:41:44;15.70;;;12.90;;
50906;SDS011;36882;27.680;85.304;2023-08-24T05:44:14;15.52;;;13.43;;
50906;SDS011;36882;27.680;85.304;2023-08-24T05:46:45;13.50;;;11.95;;
50906;SDS011;36882;27.680;85.304;2023-08-24T05:49:19;16.13;;;14.43;;
50906;SDS011;36882;27.680;85.304;2023-08-24T05:51:52;16.88;;;14.48;;
50906;SDS011;36882;27.680;85.304;2023-08-24T05:54:22;12.63;;;11.05;;
50906;SDS011;36882;27.680;85.304;2023-08-24T05:56:52;10.60;;;8.95;;
50906;SDS011;36882;27.680;85.304;2023-08-24T05:59:22;7.72;;;6.93;;
50906;SDS011;36882;27.680;85.304;2023-08-24T06:01:52;6.97;;;6.25;;
50906;SDS011;36882;27.680;85.304;2023-08-24T06:04:22;11.43;;;7.03;;
50906;SDS011;36882;27.680;85.304;2023-08-24T06:06:51;8.00;;;6.65;;
50906;SDS011;36882;27.680;85.304;2023-08-24T06:09:21;9.13;;;5.30;;
50906;SDS011;36882;27.680;85.304;2023-08-24T06:11:51;9.80;;;4.88;;
50906;SDS011;36882;27.680;85.304;2023-08-24T06:17:10;10.73;;;8.15;;
50906;SDS011;36882;27.680;85.304;2023-08-24T06:19:40;12.45;;;6.75;;
50906;SDS011;36882;27.680;85.304;2023-08-24T06:22:11;7.72;;;5.28;;
50906;SDS011;36882;27.680;85.304;2023-08-24T06:24:41;4.95;;;4.20;;
50906;SDS011;36882;27.680;85.304;2023-08-24T06:27:11;7.22;;;3.90;;
50906;SDS011;36882;27.680;85.304;2023-08-24T06:29:44;9.85;;;3.95;;
50906;SDS011;36882;27.680;85.304;2023-08-24T06:32:14;5.72;;;4.32;;
50906;SDS011;36882;27.680;85.304;2023-08-24T06:34:44;7.65;;;3.95;;
50906;SDS011;36882;27.680;85.304;2023-08-24T06:37:14;5.78;;;3.92;;
50906;SDS011;36882;27.680;85.304;2023-08-24T06:39:44;8.77;;;5.78;;
50906;SDS011;36882;27.680;85.304;2023-08-24T06:42:14;9.05;;;4.45;;
50906;SDS011;36882;27.680;85.304;2023-08-24T06:44:44;7.07;;;4.95;;
50906;SDS011;36882;27.680;85.304;2023-08-24T06:47:14;7.82;;;5.50;;
50906;SDS011;36882;27.680;85.304;2023-08-24T06:49:44;9.38;;;5.43;;
50906;SDS011;36882;27.680;85.304;2023-08-24T06:52:14;9.55;;;6.65;;
50906;SDS011;36882;27.680;85.304;2023-08-24T06:54:44;9.77;;;6.00;;
50906;SDS011;36882;27.680;85.304;2023-08-24T06:57:14;9.45;;;6.63;;
50906;SDS011;36882;27.680;85.304;2023-08-24T06:59:44;8.55;;;5.38;;
50906;SDS011;36882;27.680;85.304;2023-08-24T07:02:21;6.07;;;4.20;;
50906;SDS011;36882;27.680;85.304;2023-08-24T07:04:55;5.60;;;4.28;;
50906;SDS011;36882;27.680;85.304;2023-08-24T07:07:25;10.30;;;4.10;;
50906;SDS011;36882;27.680;85.304;2023-08-24T07:09:55;5.30;;;4.18;;
50906;SDS011;36882;27.680;85.304;2023-08-24T07:12:25;8.43;;;5.20;;
50906;SDS011;36882;27.680;85.304;2023-08-24T07:14:56;8.48;;;6.00;;
50906;SDS011;36882;27.680;85.304;2023-08-24T07:17:26;7.70;;;5.20;;
50906;SDS011;36882;27.680;85.304;2023-08-24T07:19:57;6.07;;;4.75;;
50906;SDS011;36882;27.680;85.304;2023-08-24T07:22:27;7.78;;;5.95;;
50906;SDS011;36882;27.680;85.304;2023-08-24T07:24:57;10.95;;;7.70;;
50906;SDS011;36882;27.680;85.304;2023-08-24T07:27:31;13.30;;;6.82;;
50906;SDS011;36882;27.680;85.304;2023-08-24T07:30:05;13.65;;;7.72;;
50906;SDS011;36882;27.680;85.304;2023-08-24T07:32:56;11.02;;;7.45;;
50906;SDS011;36882;27.680;85.304;2023-08-24T07:35:26;12.38;;;7.68;;
50906;SDS011;36882;27.680;85.304;2023-08-24T07:37:56;12.93;;;8.00;;
50906;SDS011;36882;27.680;85.304;2023-08-24T07:40:26;12.18;;;9.13;;
50906;SDS011;36882;27.680;85.304;2023-08-24T07:42:56;15.55;;;8.27;;
50906;SDS011;36882;27.680;85.304;2023-08-24T07:45:26;12.70;;;9.25;;
50906;SDS011;36882;27.680;85.304;2023-08-24T07:47:56;12.88;;;7.90;;
50906;SDS011;36882;27.680;85.304;2023-08-24T07:50:26;14.93;;;8.05;;
50906;SDS011;36882;27.680;85.304;2023-08-24T07:52:56;9.93;;;6.65;;
50906;SDS011;36882;27.680;85.304;2023-08-24T07:55:26;10.82;;;6.13;;
50906;SDS011;36882;27.680;85.304;2023-08-24T07:57:56;13.15;;;8.00;;
50906;SDS011;36882;27.680;85.304;2023-08-24T08:00:26;13.00;;;7.82;;
50906;SDS011;36882;27.680;85.304;2023-08-24T08:02:56;13.88;;;9.32;;
50906;SDS011;36882;27.680;85.304;2023-08-24T08:05:26;18.55;;;11.23;;
50906;SDS011;36882;27.680;85.304;2023-08-24T08:07:56;12.20;;;10.90;;
50906;SDS011;36882;27.680;85.304;2023-08-24T08:10:26;14.98;;;10.55;;
50906;SDS011;36882;27.680;85.304;2023-08-24T08:12:56;17.60;;;10.93;;
50906;SDS011;36882;27.680;85.304;2023-08-24T08:15:27;10.63;;;9.35;;
50906;SDS011;36882;27.680;85.304;2023-08-24T08:17:58;10.35;;;7.70;;
50906;SDS011;36882;27.680;85.304;2023-08-24T08:20:28;13.98;;;8.25;;
50906;SDS011;36882;27.680;85.304;2023-08-24T08:22:59;11.35;;;8.32;;
50906;SDS011;36882;27.680;85.304;2023-08-24T08:25:29;11.98;;;7.68;;
50906;SDS011;36882;27.680;85.304;2023-08-24T08:28:00;11.30;;;6.88;;
50906;SDS011;36882;27.680;85.304;2023-08-24T08:30:30;8.07;;;7.28;;
50906;SDS011;36882;27.680;85.304;2023-08-24T08:33:01;9.65;;;6.50;;
50906;SDS011;36882;27.680;85.304;2023-08-24T08:35:31;11.98;;;7.13;;
50906;SDS011;36882;27.680;85.304;2023-08-24T08:38:01;12.10;;;6.20;;
50906;SDS011;36882;27.680;85.304;2023-08-24T08:40:31;10.90;;;6.15;;
50906;SDS011;36882;27.680;85.304;2023-08-24T08:43:00;15.63;;;5.88;;
50906;SDS011;36882;27.680;85.304;2023-08-24T08:45:30;8.18;;;5.32;;
50906;SDS011;36882;27.680;85.304;2023-08-24T08:48:01;8.18;;;5.30;;
50906;SDS011;36882;27.680;85.304;2023-08-24T08:50:33;10.50;;;6.55;;
50906;SDS011;36882;27.680;85.304;2023-08-24T08:53:04;16.05;;;8.95;;
50906;SDS011;36882;27.680;85.304;2023-08-24T08:55:34;13.30;;;8.43;;
50906;SDS011;36882;27.680;85.304;2023-08-24T08:58:04;13.80;;;9.40;;
50906;SDS011;36882;27.680;85.304;2023-08-24T09:00:35;13.23;;;8.13;;
50906;SDS011;36882;27.680;85.304;2023-08-24T09:03:05;16.10;;;9.70;;
50906;SDS011;36882;27.680;85.304;2023-08-24T09:05:36;20.65;;;11.02;;
50906;SDS011;36882;27.680;85.304;2023-08-24T09:08:07;24.90;;;10.38;;
50906;SDS011;36882;27.680;85.304;2023-08-24T09:10:38;16.15;;;9.68;;
50906;SDS011;36882;27.680;85.304;2023-08-24T09:13:08;22.75;;;9.70;;
50906;SDS011;36882;27.680;85.304;2023-08-24T09:15:38;14.25;;;10.23;;
50906;SDS011;36882;27.680;85.304;2023-08-24T09:18:09;17.17;;;8.85;;
50906;SDS011;36882;27.680;85.304;2023-08-24T09:20:39;16.15;;;9.98;;
50906;SDS011;36882;27.680;85.304;2023-08-24T09:23:18;10.55;;;9.32;;
50906;SDS011;36882;27.680;85.304;2023-08-24T09:25:49;14.73;;;9.00;;
50906;SDS011;36882;27.680;85.304;2023-08-24T09:28:22;18.98;;;8.65;;
50906;SDS011;36882;27.680;85.304;2023-08-24T09:30:53;13.45;;;8.00;;
50906;SDS011;36882;27.680;85.304;2023-08-24T09:33:23;15.20;;;7.40;;
50906;SDS011;36882;27.680;85.304;2023-08-24T09:35:54;15.07;;;7.50;;
50906;SDS011;36882;27.680;85.304;2023-08-24T09:38:31;19.95;;;7.75;;
50906;SDS011;36882;27.680;85.304;2023-08-24T09:41:03;22.90;;;9.85;;
50906;SDS011;36882;27.680;85.304;2023-08-24T09:43:33;16.08;;;10.70;;
50906;SDS011;36882;27.680;85.304;2023-08-24T09:46:03;21.85;;;11.70;;
50906;SDS011;36882;27.680;85.304;2023-08-24T09:48:37;20.38;;;12.60;;
50906;SDS011;36882;27.680;85.304;2023-08-24T09:51:07;18.30;;;10.32;;
50906;SDS011;36882;27.680;85.304;2023-08-24T09:53:38;27.85;;;11.93;;
50906;SDS011;36882;27.680;85.304;2023-08-24T09:56:09;25.63;;;12.18;;
50906;SDS011;36882;27.680;85.304;2023-08-24T09:58:43;18.38;;;10.98;;
50906;SDS011;36882;27.680;85.304;2023-08-24T10:01:18;18.00;;;9.55;;
50906;SDS011;36882;27.680;85.304;2023-08-24T10:03:51;16.92;;;8.88;;
50906;SDS011;36882;27.680;85.304;2023-08-24T10:06:24;19.98;;;9.05;;
50906;SDS011;36882;27.680;85.304;2023-08-24T10:08:58;18.00;;;8.70;;
50906;SDS011;36882;27.680;85.304;2023-08-24T10:12:23;18.70;;;9.65;;
50906;SDS011;36882;27.680;85.304;2023-08-24T10:14:59;19.10;;;8.32;;
50906;SDS011;36882;27.680;85.304;2023-08-24T10:17:37;16.83;;;9.27;;
50906;SDS011;36882;27.680;85.304;2023-08-24T10:20:09;23.80;;;9.00;;
50906;SDS011;36882;27.680;85.304;2023-08-24T10:22:43;20.33;;;8.70;;
50906;SDS011;36882;27.680;85.304;2023-08-24T10:25:16;16.52;;;8.80;;
50906;SDS011;36882;27.680;85.304;2023-08-24T10:27:47;17.85;;;8.98;;
50906;SDS011;36882;27.680;85.304;2023-08-24T10:30:18;16.73;;;8.40;;
50906;SDS011;36882;27.680;85.304;2023-08-24T10:32:50;18.33;;;9.70;;
50906;SDS011;36882;27.680;85.304;2023-08-24T10:35:22;16.13;;;9.57;;
50906;SDS011;36882;27.680;85.304;2023-08-24T10:37:52;28.58;;;19.65;;
50906;SDS011;36882;27.680;85.304;2023-08-24T10:40:33;17.92;;;10.18;;
50906;SDS011;36882;27.680;85.304;2023-08-24T10:43:05;24.48;;;11.68;;
50906;SDS011;36882;27.680;85.304;2023-08-24T10:46:17;16.20;;;11.20;;
50906;SDS011;36882;27.680;85.304;2023-08-24T10:48:30;17.08;;;11.05;;
50906;SDS011;36882;27.680;85.304;2023-08-24T10:51:22;25.50;;;10.73;;
50906;SDS011;36882;27.680;85.304;2023-08-24T10:53:58;17.15;;;10.68;;
50906;SDS011;36882;27.680;85.304;2023-08-24T10:56:37;22.60;;;11.32;;
50906;SDS011;36882;27.680;85.304;2023-08-24T10:59:18;20.13;;;11.90;;
50906;SDS011;36882;27.680;85.304;2023-08-24T11:04:20;14.18;;;9.13;;
50906;SDS011;36882;27.680;85.304;2023-08-24T11:07:00;19.88;;;10.85;;
50906;SDS011;36882;27.680;85.304;2023-08-24T11:09:45;17.60;;;8.88;;
50906;SDS011;36882;27.680;85.304;2023-08-24T11:12:16;19.40;;;9.23;;
50906;SDS011;36882;27.680;85.304;2023-08-24T11:14:48;15.23;;;9.52;;
50906;SDS011;36882;27.680;85.304;2023-08-24T11:17:29;22.70;;;10.77;;
50906;SDS011;36882;27.680;85.304;2023-08-24T11:20:03;16.60;;;9.57;;
50906;SDS011;36882;27.680;85.304;2023-08-24T11:22:34;23.27;;;11.68;;
50906;SDS011;36882;27.680;85.304;2023-08-24T11:25:05;48.17;;;24.08;;
50906;SDS011;36882;27.680;85.304;2023-08-24T11:27:41;22.10;;;11.65;;
50906;SDS011;36882;27.680;85.304;2023-08-24T11:30:16;27.90;;;15.50;;
50906;SDS011;36882;27.680;85.304;2023-08-24T11:32:51;18.23;;;10.77;;
50906;SDS011;36882;27.680;85.304;2023-08-24T11:35:22;15.52;;;9.60;;
50906;SDS011;36882;27.680;85.304;2023-08-24T11:37:52;18.17;;;10.68;;
50906;SDS011;36882;27.680;85.304;2023-08-24T11:40:23;21.92;;;9.10;;
50906;SDS011;36882;27.680;85.304;2023-08-24T11:42:56;16.23;;;9.95;;
50906;SDS011;36882;27.680;85.304;2023-08-24T11:45:33;14.38;;;7.90;;
50906;SDS011;36882;27.680;85.304;2023-08-24T11:48:06;15.00;;;7.80;;
50906;SDS011;36882;27.680;85.304;2023-08-24T11:50:37;15.32;;;8.60;;
50906;SDS011;36882;27.680;85.304;2023-08-24T11:53:07;11.75;;;7.30;;
50906;SDS011;36882;27.680;85.304;2023-08-24T11:55:39;26.73;;;12.38;;
50906;SDS011;36882;27.680;85.304;2023-08-24T11:58:25;16.15;;;8.98;;
50906;SDS011;36882;27.680;85.304;2023-08-24T12:00:55;16.58;;;10.40;;
50906;SDS011;36882;27.680;85.304;2023-08-24T12:03:25;16.88;;;10.00;;
50906;SDS011;36882;27.680;85.304;2023-08-24T12:05:58;15.35;;;9.73;;
50906;SDS011;36882;27.680;85.304;2023-08-24T12:08:42;17.63;;;9.15;;
50906;SDS011;36882;27.680;85.304;2023-08-24T12:11:18;15.68;;;10.27;;
50906;SDS011;36882;27.680;85.304;2023-08-24T12:13:49;12.23;;;8.80;;
50906;SDS011;36882;27.680;85.304;2023-08-24T12:16:22;15.18;;;9.02;;
50906;SDS011;36882;27.680;85.304;2023-08-24T12:18:56;16.00;;;9.02;;
50906;SDS011;36882;27.680;85.304;2023-08-24T12:21:31;17.77;;;8.33;;
50906;SDS011;36882;27.680;85.304;2023-08-24T12:26:34;14.60;;;8.75;;
50906;SDS011;36882;27.680;85.304;2023-08-24T12:29:05;16.73;;;9.23;;
50906;SDS011;36882;27.680;85.304;2023-08-24T12:31:36;14.05;;;8.70;;
50906;SDS011;36882;27.680;85.304;2023-08-24T12:34:14;18.98;;;9.15;;
50906;SDS011;36882;27.680;85.304;2023-08-24T12:36:44;14.98;;;8.00;;
50906;SDS011;36882;27.680;85.304;2023-08-24T12:39:14;18.58;;;10.40;;
50906;SDS011;36882;27.680;85.304;2023-08-24T12:41:44;16.67;;;8.23;;
50906;SDS011;36882;27.680;85.304;2023-08-24T12:44:15;15.38;;;9.45;;
50906;SDS011;36882;27.680;85.304;2023-08-24T12:46:45;14.40;;;8.27;;
50906;SDS011;36882;27.680;85.304;2023-08-24T12:49:15;12.68;;;8.25;;
50906;SDS011;36882;27.680;85.304;2023-08-24T12:51:45;16.15;;;9.27;;
50906;SDS011;36882;27.680;85.304;2023-08-24T12:54:16;16.02;;;8.20;;
50906;SDS011;36882;27.680;85.304;2023-08-24T12:56:47;15.10;;;8.90;;
50906;SDS011;36882;27.680;85.304;2023-08-24T12:59:17;16.48;;;10.77;;
50906;SDS011;36882;27.680;85.304;2023-08-24T13:01:47;21.17;;;10.88;;
50906;SDS011;36882;27.680;85.304;2023-08-24T13:04:17;21.05;;;11.73;;
50906;SDS011;36882;27.680;85.304;2023-08-24T13:06:47;17.13;;;10.48;;
50906;SDS011;36882;27.680;85.304;2023-08-24T13:11:48;19.30;;;11.05;;
50906;SDS011;36882;27.680;85.304;2023-08-24T13:14:18;17.30;;;11.32;;
50906;SDS011;36882;27.680;85.304;2023-08-24T13:16:49;23.15;;;12.60;;
50906;SDS011;36882;27.680;85.304;2023-08-24T13:19:19;19.88;;;11.15;;
50906;SDS011;36882;27.680;85.304;2023-08-24T13:21:49;22.27;;;12.63;;
50906;SDS011;36882;27.680;85.304;2023-08-24T13:26:49;21.98;;;12.25;;
50906;SDS011;36882;27.680;85.304;2023-08-24T13:29:19;20.52;;;14.13;;
50906;SDS011;36882;27.680;85.304;2023-08-24T13:34:18;19.55;;;13.60;;
50906;SDS011;36882;27.680;85.304;2023-08-24T13:36:48;22.02;;;14.25;;
50906;SDS011;36882;27.680;85.304;2023-08-24T13:39:21;29.83;;;14.27;;
50906;SDS011;36882;27.680;85.304;2023-08-24T13:41:51;20.13;;;14.02;;
50906;SDS011;36882;27.680;85.304;2023-08-24T13:44:21;20.30;;;12.23;;
50906;SDS011;36882;27.680;85.304;2023-08-24T13:46:52;25.38;;;12.60;;
50906;SDS011;36882;27.680;85.304;2023-08-24T13:49:21;24.40;;;13.55;;
50906;SDS011;36882;27.680;85.304;2023-08-24T13:52:06;27.52;;;14.60;;
50906;SDS011;36882;27.680;85.304;2023-08-24T13:54:36;24.77;;;13.88;;
50906;SDS011;36882;27.680;85.304;2023-08-24T13:57:09;24.95;;;14.48;;
50906;SDS011;36882;27.680;85.304;2023-08-24T14:02:08;29.15;;;17.35;;
50906;SDS011;36882;27.680;85.304;2023-08-24T14:04:40;26.95;;;15.38;;
50906;SDS011;36882;27.680;85.304;2023-08-24T14:07:10;31.10;;;15.95;;
50906;SDS011;36882;27.680;85.304;2023-08-24T14:09:41;28.50;;;15.48;;
50906;SDS011;36882;27.680;85.304;2023-08-24T14:12:30;34.20;;;16.77;;
50906;SDS011;36882;27.680;85.304;2023-08-24T14:15:01;28.10;;;13.60;;
50906;SDS011;36882;27.680;85.304;2023-08-24T14:17:31;21.73;;;12.88;;
50906;SDS011;36882;27.680;85.304;2023-08-24T14:20:02;25.80;;;14.40;;
50906;SDS011;36882;27.680;85.304;2023-08-24T14:22:32;24.38;;;16.25;;
50906;SDS011;36882;27.680;85.304;2023-08-24T14:27:32;31.33;;;16.08;;
50906;SDS011;36882;27.680;85.304;2023-08-24T14:30:03;28.15;;;16.08;;
50906;SDS011;36882;27.680;85.304;2023-08-24T14:32:34;26.60;;;14.90;;
50906;SDS011;36882;27.680;85.304;2023-08-24T14:35:04;29.35;;;16.02;;
50906;SDS011;36882;27.680;85.304;2023-08-24T14:37:34;24.92;;;13.88;;
50906;SDS011;36882;27.680;85.304;2023-08-24T14:40:06;25.95;;;14.07;;
50906;SDS011;36882;27.680;85.304;2023-08-24T14:42:36;19.48;;;13.05;;
50906;SDS011;36882;27.680;85.304;2023-08-24T14:47:36;17.10;;;11.63;;
50906;SDS011;36882;27.680;85.304;2023-08-24T14:50:07;23.00;;;11.93;;
50906;SDS011;36882;27.680;85.304;2023-08-24T14:52:39;21.48;;;11.38;;
50906;SDS011;36882;27.680;85.304;2023-08-24T14:55:09;17.75;;;12.20;;
50906;SDS011;36882;27.680;85.304;2023-08-24T14:57:40;22.13;;;12.00;;
50906;SDS011;36882;27.680;85.304;2023-08-24T15:00:10;16.70;;;12.10;;
50906;SDS011;36882;27.680;85.304;2023-08-24T15:02:41;17.85;;;10.48;;
50906;SDS011;36882;27.680;85.304;2023-08-24T15:05:11;13.50;;;8.52;;
50906;SDS011;36882;27.680;85.304;2023-08-24T15:07:41;15.05;;;8.35;;
50906;SDS011;36882;27.680;85.304;2023-08-24T15:12:40;12.77;;;9.13;;
50906;SDS011;36882;27.680;85.304;2023-08-24T15:15:10;14.00;;;8.25;;
50906;SDS011;36882;27.680;85.304;2023-08-24T15:17:45;12.75;;;8.35;;
50906;SDS011;36882;27.680;85.304;2023-08-24T15:20:17;15.30;;;9.43;;
50906;SDS011;36882;27.680;85.304;2023-08-24T15:22:48;15.02;;;8.23;;
50906;SDS011;36882;27.680;85.304;2023-08-24T15:25:18;14.73;;;8.60;;
50906;SDS011;36882;27.680;85.304;2023-08-24T15:27:49;21.13;;;8.98;;
50906;SDS011;36882;27.680;85.304;2023-08-24T15:30:20;14.73;;;8.68;;
50906;SDS011;36882;27.680;85.304;2023-08-24T15:32:50;16.95;;;8.93;;
50906;SDS011;36882;27.680;85.304;2023-08-24T15:35:20;17.73;;;11.57;;
50906;SDS011;36882;27.680;85.304;2023-08-24T15:37:50;13.98;;;8.98;;
50906;SDS011;36882;27.680;85.304;2023-08-24T15:40:20;18.15;;;8.75;;
50906;SDS011;36882;27.680;85.304;2023-08-24T15:45:20;21.08;;;9.35;;
50906;SDS011;36882;27.680;85.304;2023-08-24T15:47:50;17.05;;;8.30;;
50906;SDS011;36882;27.680;85.304;2023-08-24T15:50:20;12.75;;;8.30;;
50906;SDS011;36882;27.680;85.304;2023-08-24T15:52:51;14.23;;;8.98;;
50906;SDS011;36882;27.680;85.304;2023-08-24T15:55:30;19.42;;;10.20;;
50906;SDS011;36882;27.680;85.304;2023-08-24T15:58:01;17.45;;;9.57;;
50906;SDS011;36882;27.680;85.304;2023-08-24T16:00:31;17.58;;;9.45;;
50906;SDS011;36882;27.680;85.304;2023-08-24T16:03:02;16.73;;;10.23;;
50906;SDS011;36882;27.680;85.304;2023-08-24T16:05:33;25.50;;;10.85;;
50906;SDS011;36882;27.680;85.304;2023-08-24T16:08:03;23.67;;;10.27;;
50906;SDS011;36882;27.680;85.304;2023-08-24T16:10:34;18.83;;;10.38;;